Time;durP1;ratioP1;P1;durP2;ratioP2;P2;SDS_P1;SDS_P2;PMS_P1;PMS_P2;Temp;Humidity;BMP_temperature;BMP_pressure;BME280_temperature;BME280_humidity;BME280_pressure;Samples;Min_cycle;Max_cycle;Signal;HPM_P1;HPM_P2
2021/03/22 00:01:28;;;;;;;30.27;16.40;;;1.10;99.90;;;;;;5031533;28;20029;-74
2021/03/22 00:03:54;;;;;;;26.17;16.63;;;0.90;99.90;;;;;;5031565;28;20385;-75
2021/03/22 00:06:19;;;;;;;29.73;17.98;;;0.80;99.90;;;;;;5013942;28;20025;-75
2021/03/22 00:08:45;;;;;;;33.38;19.67;;;0.70;99.90;;;;;;5031453;28;20022;-75
2021/03/22 00:11:11;;;;;;;38.70;19.65;;;0.70;99.90;;;;;;5034170;28;20105;-75
2021/03/22 00:13:41;;;;;;;34.80;19.42;;;0.80;99.90;;;;;;5035330;28;20432;-74
2021/03/22 00:16:09;;;;;;;29.70;18.88;;;0.70;99.90;;;;;;5017301;28;20420;-75
2021/03/22 00:18:37;;;;;;;31.55;19.02;;;0.80;99.90;;;;;;5035016;28;20385;-73
2021/03/22 00:21:05;;;;;;;35.35;18.65;;;0.90;99.90;;;;;;5035159;28;20026;-73
2021/03/22 00:23:31;;;;;;;30.05;19.23;;;0.80;99.90;;;;;;5035112;28;20030;-73
2021/03/22 00:25:56;;;;;;;33.70;19.48;;;0.80;99.90;;;;;;5034842;28;20022;-73
2021/03/22 00:28:24;;;;;;;39.35;20.77;;;0.90;99.90;;;;;;5034754;28;20030;-73
2021/03/22 00:30:50;;;;;;;34.50;20.05;;;1.00;99.90;;;;;;5035104;28;20103;-74
2021/03/22 00:33:18;;;;;;;29.55;18.52;;;1.00;99.90;;;;;;5017079;28;20523;-74
2021/03/22 00:35:44;;;;;;;37.08;19.45;;;1.00;99.90;;;;;;5034796;28;20017;-74
2021/03/22 00:38:11;;;;;;;36.10;19.60;;;0.90;99.90;;;;;;5034690;28;20022;-74
2021/03/22 00:40:40;;;;;;;35.60;20.15;;;0.90;99.90;;;;;;5034690;28;20021;-75
2021/03/22 00:43:06;;;;;;;36.22;19.83;;;0.90;99.90;;;;;;5034682;28;20068;-74
2021/03/22 00:45:32;;;;;;;39.10;19.27;;;1.00;99.90;;;;;;5016949;28;20040;-74
2021/03/22 00:47:58;;;;;;;36.78;20.13;;;0.90;99.90;;;;;;5016860;28;20063;-74
2021/03/22 00:50:34;;;;;;;41.63;21.33;;;0.90;99.90;;;;;;5034604;28;20496;-74
2021/03/22 00:53:00;;;;;;;35.80;19.92;;;0.90;99.90;;;;;;5034579;28;20381;-74
2021/03/22 00:55:26;;;;;;;34.47;19.67;;;1.00;99.90;;;;;;5016661;28;20037;-74
2021/03/22 00:57:53;;;;;;;35.47;21.05;;;1.10;99.90;;;;;;5034341;28;20051;-74
2021/03/22 01:00:30;;;;;;;35.83;20.95;;;1.00;99.90;;;;;;5034461;28;20030;-74
2021/03/22 01:02:57;;;;;;;39.92;20.98;;;1.10;99.90;;;;;;5034401;28;20393;-75
2021/03/22 01:05:24;;;;;;;37.20;20.83;;;1.10;99.90;;;;;;5034265;28;20025;-76
2021/03/22 01:07:50;;;;;;;37.08;22.75;;;1.10;99.90;;;;;;5016451;28;20075;-75
2021/03/22 01:10:40;;;;;;;39.85;21.45;;;1.20;99.90;;;;;;4999980;28;20029;-75
2021/03/22 01:13:10;;;;;;;32.97;20.40;;;1.10;99.90;;;;;;5016705;28;20431;-76
2021/03/22 01:15:36;;;;;;;36.53;22.30;;;1.20;99.90;;;;;;5016406;28;20036;-75
2021/03/22 01:18:03;;;;;;;42.70;21.30;;;1.10;99.90;;;;;;5034110;28;20484;-75
2021/03/22 01:20:37;;;;;;;39.80;21.52;;;1.00;99.90;;;;;;5016340;28;20030;-75
2021/03/22 01:23:03;;;;;;;37.03;21.38;;;1.00;99.90;;;;;;5032884;28;20040;-75
2021/03/22 01:25:29;;;;;;;35.78;21.08;;;1.20;99.90;;;;;;5033935;28;20029;-75
2021/03/22 01:27:56;;;;;;;36.97;19.40;;;1.30;99.90;;;;;;5033994;28;20030;-75
2021/03/22 01:30:26;;;;;;;37.05;20.67;;;1.30;99.90;;;;;;5033727;28;20025;-75
2021/03/22 01:32:52;;;;;;;42.35;21.00;;;1.50;99.90;;;;;;5033763;28;20037;-75
2021/03/22 01:35:18;;;;;;;35.92;20.38;;;1.50;99.90;;;;;;5033608;28;20045;-75
2021/03/22 01:37:44;;;;;;;35.08;21.05;;;1.60;99.90;;;;;;5033632;28;20562;-75
2021/03/22 01:40:27;;;;;;;38.08;21.52;;;1.60;99.90;;;;;;5033680;28;20026;-75
2021/03/22 01:43:00;;;;;;;38.83;23.48;;;1.50;99.90;;;;;;5033756;28;20025;-75
2021/03/22 01:45:26;;;;;;;40.67;21.60;;;1.50;99.90;;;;;;5033901;28;20030;-76
2021/03/22 01:47:52;;;;;;;33.60;19.13;;;1.60;99.90;;;;;;5015878;28;20029;-75
2021/03/22 01:50:30;;;;;;;43.33;22.42;;;1.50;99.90;;;;;;5033417;28;20029;-75
2021/03/22 01:52:59;;;;;;;36.90;21.67;;;1.30;99.90;;;;;;5033395;28;20432;-75
2021/03/22 01:55:26;;;;;;;40.47;22.02;;;1.30;99.90;;;;;;5033322;28;20044;-75
2021/03/22 01:57:52;;;;;;;43.38;22.92;;;1.20;99.90;;;;;;5033290;28;20473;-75
2021/03/22 02:00:32;;;;;;;39.65;22.40;;;1.10;99.90;;;;;;5033367;28;20032;-75
2021/03/22 02:03:07;;;;;;;45.00;23.05;;;1.10;99.90;;;;;;5033337;28;20030;-75
2021/03/22 02:05:35;;;;;;;42.30;22.55;;;1.20;99.90;;;;;;5033127;28;20444;-75
2021/03/22 02:08:12;;;;;;;38.65;20.95;;;1.40;99.90;;;;;;5032956;28;20496;-75
2021/03/22 02:10:39;;;;;;;42.10;21.90;;;1.40;99.90;;;;;;5033244;28;20029;-75
2021/03/22 02:13:06;;;;;;;44.38;24.25;;;1.40;99.90;;;;;;5032999;28;20389;-75
2021/03/22 02:15:32;;;;;;;41.10;22.40;;;1.40;99.90;;;;;;5032963;28;20017;-75
2021/03/22 02:18:36;;;;;;;37.92;21.75;;;1.30;99.90;;;;;;5032949;28;20389;-75
2021/03/22 02:21:39;;;;;;;38.20;21.60;;;1.20;99.90;;;;;;5032964;28;20026;-75
2021/03/22 02:24:28;;;;;;;42.55;22.48;;;1.10;99.90;;;;;;5032910;28;20040;-75
2021/03/22 02:26:57;;;;;;;42.35;21.52;;;1.20;99.90;;;;;;5015116;28;20563;-75
2021/03/22 02:29:39;;;;;;;39.15;21.83;;;1.30;99.90;;;;;;5032468;28;20037;-75
2021/03/22 02:32:17;;;;;;;42.50;22.40;;;1.30;99.90;;;;;;5032619;28;20083;-75
2021/03/22 02:34:59;;;;;;;40.90;22.40;;;1.30;99.90;;;;;;5032353;28;20033;-75
2021/03/22 02:37:33;;;;;;;39.88;22.90;;;1.40;99.90;;;;;;5032590;28;20029;-75
2021/03/22 02:40:08;;;;;;;45.72;21.25;;;1.40;99.90;;;;;;5032671;28;20069;-75
2021/03/22 02:42:37;;;;;;;38.28;21.33;;;1.40;99.90;;;;;;5032611;28;20281;-75
2021/03/22 02:45:06;;;;;;;36.03;21.40;;;1.40;99.90;;;;;;5032789;28;20022;-75
2021/03/22 02:47:35;;;;;;;40.10;21.65;;;1.40;99.90;;;;;;5032384;28;20064;-73
2021/03/22 02:50:08;;;;;;;36.45;21.02;;;1.40;99.90;;;;;;5032319;28;20029;-74
2021/03/22 02:53:11;;;;;;;44.25;22.92;;;1.50;99.90;;;;;;5032377;28;20171;-74
2021/03/22 02:55:54;;;;;;;35.67;20.27;;;1.80;99.90;;;;;;5032106;28;20021;-74
2021/03/22 02:58:25;;;;;;;39.67;22.02;;;1.90;99.90;;;;;;4998120;28;20017;-73
2021/03/22 03:01:10;;;;;;;32.90;16.87;;;2.00;99.90;;;;;;5032316;28;20052;-74
2021/03/22 03:03:36;;;;;;;50.05;23.05;;;2.00;99.90;;;;;;5032250;28;20137;-74
2021/03/22 03:06:03;;;;;;;35.30;19.90;;;2.00;99.90;;;;;;5031940;28;20030;-73
2021/03/22 03:08:32;;;;;;;40.58;20.63;;;2.00;99.90;;;;;;5032055;28;20071;-73
2021/03/22 03:10:59;;;;;;;35.85;21.42;;;2.00;99.90;;;;;;5014340;28;20452;-74
2021/03/22 03:13:25;;;;;;;43.70;23.42;;;1.90;99.90;;;;;;5032095;28;20033;-74
2021/03/22 03:15:51;;;;;;;39.33;20.50;;;1.90;99.90;;;;;;5031964;28;20033;-74
2021/03/22 03:18:17;;;;;;;44.38;21.80;;;2.00;99.90;;;;;;5031885;28;20022;-74
2021/03/22 03:20:42;;;;;;;37.42;21.30;;;2.00;99.90;;;;;;5031826;28;20036;-74
2021/03/22 03:23:08;;;;;;;36.13;22.35;;;2.10;99.90;;;;;;5031924;28;20030;-74
2021/03/22 03:25:34;;;;;;;45.20;22.27;;;2.10;99.90;;;;;;5014108;28;20048;-74
2021/03/22 03:28:00;;;;;;;43.25;22.17;;;2.20;99.90;;;;;;5031803;28;20030;-74
2021/03/22 03:30:30;;;;;;;46.17;22.80;;;2.20;99.90;;;;;;5031565;28;20065;-74
2021/03/22 03:32:56;;;;;;;40.72;20.13;;;2.30;99.90;;;;;;5013960;28;20523;-74
2021/03/22 03:35:26;;;;;;;36.10;20.17;;;2.20;99.90;;;;;;5013937;28;20021;-74
2021/03/22 03:37:52;;;;;;;38.33;19.92;;;2.00;99.90;;;;;;5014051;28;20370;-74
2021/03/22 03:40:40;;;;;;;39.22;20.30;;;2.00;99.90;;;;;;5031801;28;20101;-74
2021/03/22 03:43:07;;;;;;;40.95;19.92;;;1.90;99.90;;;;;;5031701;28;20477;-74
2021/03/22 03:45:36;;;;;;;44.85;21.63;;;2.00;99.90;;;;;;5015712;28;20025;-74
2021/03/22 03:48:03;;;;;;;42.58;21.98;;;2.00;99.90;;;;;;5035748;28;20057;-74
2021/03/22 03:50:30;;;;;;;42.13;20.90;;;2.00;99.90;;;;;;5035575;28;20084;-74
2021/03/22 03:52:57;;;;;;;42.35;20.98;;;1.80;99.90;;;;;;5035661;28;20595;-73
2021/03/22 03:55:25;;;;;;;43.13;22.02;;;1.60;99.90;;;;;;5035539;28;20049;-74
2021/03/22 03:57:52;;;;;;;43.90;22.00;;;1.70;99.90;;;;;;5035548;28;20029;-74
2021/03/22 04:00:27;;;;;;;51.35;22.05;;;1.80;99.90;;;;;;5001505;28;20548;-74
2021/03/22 04:02:54;;;;;;;49.45;24.10;;;1.80;99.90;;;;;;5035560;28;20163;-74
2021/03/22 04:05:22;;;;;;;52.20;22.17;;;1.70;99.90;;;;;;5017591;28;20034;-74
2021/03/22 04:07:48;;;;;;;50.55;21.27;;;1.80;99.90;;;;;;5035311;28;20034;-75
2021/03/22 04:10:15;;;;;;;51.92;22.58;;;1.80;99.90;;;;;;5017526;28;20033;-74
2021/03/22 04:12:41;;;;;;;43.80;21.58;;;1.90;99.90;;;;;;5035357;28;20025;-74
2021/03/22 04:15:09;;;;;;;47.40;21.85;;;2.10;99.90;;;;;;5017431;28;20022;-74
2021/03/22 04:17:35;;;;;;;48.10;21.58;;;2.10;99.90;;;;;;5035164;28;20020;-74
2021/03/22 04:20:03;;;;;;;61.78;24.20;;;2.20;99.90;;;;;;5017537;28;20025;-75
2021/03/22 04:22:29;;;;;;;58.53;21.48;;;2.30;99.90;;;;;;5035122;28;20039;-75
2021/03/22 04:24:55;;;;;;;54.67;20.58;;;2.10;99.90;;;;;;5034918;28;20116;-75
2021/03/22 04:27:20;;;;;;;49.70;23.58;;;2.10;99.90;;;;;;5035027;28;20025;-74
2021/03/22 04:29:46;;;;;;;50.00;21.65;;;2.20;99.90;;;;;;5017057;28;20063;-74
2021/03/22 04:32:12;;;;;;;46.50;20.80;;;2.20;99.90;;;;;;5034939;28;20018;-74
2021/03/22 04:34:38;;;;;;;47.63;20.27;;;2.10;99.90;;;;;;5034735;28;20025;-74
2021/03/22 04:37:04;;;;;;;51.13;21.50;;;2.20;99.90;;;;;;5035014;28;20431;-74
2021/03/22 04:39:30;;;;;;;49.47;20.88;;;2.30;99.90;;;;;;5017144;28;20527;-74
2021/03/22 04:41:55;;;;;;;48.60;19.85;;;2.30;99.90;;;;;;5033507;28;20059;-75
2021/03/22 04:44:21;;;;;;;40.40;20.23;;;2.20;99.90;;;;;;5034798;28;20222;-74
2021/03/22 04:46:47;;;;;;;51.83;21.75;;;2.20;99.90;;;;;;5034629;28;20025;-75
2021/03/22 04:49:13;;;;;;;58.65;22.60;;;2.20;99.90;;;;;;5034487;28;20017;-74
2021/03/22 04:51:38;;;;;;;46.20;20.70;;;2.20;99.90;;;;;;5033383;28;20477;-74
2021/03/22 04:54:04;;;;;;;53.05;21.38;;;2.10;99.90;;;;;;5033372;28;20469;-74
2021/03/22 04:56:30;;;;;;;39.67;20.75;;;2.10;99.90;;;;;;5034472;28;20021;-74
2021/03/22 04:58:56;;;;;;;51.95;22.10;;;2.00;99.90;;;;;;5034386;28;20056;-74
2021/03/22 05:01:22;;;;;;;55.17;20.63;;;1.90;99.90;;;;;;5034477;28;20079;-74
2021/03/22 05:03:48;;;;;;;59.22;22.83;;;2.10;99.90;;;;;;5034777;28;20026;-74
2021/03/22 05:06:13;;;;;;;57.42;22.30;;;2.10;99.90;;;;;;5016529;28;20649;-74
2021/03/22 05:08:39;;;;;;;61.13;23.38;;;2.20;99.90;;;;;;5034160;28;20076;-75
2021/03/22 05:11:05;;;;;;;51.15;22.13;;;2.20;99.90;;;;;;5034280;28;20413;-74
2021/03/22 05:13:32;;;;;;;48.72;22.30;;;2.30;99.90;;;;;;5016550;28;20030;-74
2021/03/22 05:15:59;;;;;;;68.47;23.00;;;2.40;99.90;;;;;;5016419;28;20021;-74
2021/03/22 05:18:26;;;;;;;57.13;22.88;;;2.50;99.90;;;;;;5033916;28;20109;-74
2021/03/22 05:20:56;;;;;;;53.63;21.88;;;2.30;99.90;;;;;;5016255;28;20489;-74
2021/03/22 05:23:26;;;;;;;58.63;21.48;;;2.20;99.90;;;;;;5034235;28;20108;-74
2021/03/22 05:25:53;;;;;;;86.10;31.25;;;2.10;99.90;;;;;;5016130;28;20055;-74
2021/03/22 05:28:20;;;;;;;101.82;37.47;;;2.10;99.90;;;;;;5033746;28;20111;-74
2021/03/22 05:30:47;;;;;;;68.55;28.77;;;2.20;99.90;;;;;;5015838;28;20045;-74
2021/03/22 05:33:15;;;;;;;76.85;27.80;;;2.20;99.90;;;;;;5015974;28;20401;-74
2021/03/22 05:35:43;;;;;;;61.55;24.30;;;2.30;99.90;;;;;;5033631;28;20021;-74
2021/03/22 05:38:09;;;;;;;55.15;21.58;;;2.30;99.90;;;;;;5033641;28;20017;-74
2021/03/22 05:40:38;;;;;;;59.08;25.08;;;2.30;99.90;;;;;;5033743;28;20509;-74
2021/03/22 05:43:16;;;;;;;59.83;21.88;;;2.30;99.90;;;;;;4999542;28;20053;-74
2021/03/22 05:45:57;;;;;;;66.78;23.13;;;2.30;99.90;;;;;;5032175;28;20079;-74
2021/03/22 05:48:51;;;;;;;54.47;20.75;;;2.20;99.90;;;;;;5033456;28;20021;-74
2021/03/22 05:51:51;;;;;;;64.50;21.38;;;2.10;99.90;;;;;;5032143;28;20076;-74
2021/03/22 05:54:43;;;;;;;57.70;21.65;;;2.10;99.90;;;;;;5033496;28;20159;-75
2021/03/22 05:57:20;;;;;;;48.35;21.70;;;2.30;99.90;;;;;;5033411;28;20017;-75
2021/03/22 05:59:58;;;;;;;64.03;21.92;;;2.30;99.90;;;;;;5033257;28;20037;-75
2021/03/22 06:02:43;;;;;;;81.25;23.92;;;2.30;99.90;;;;;;5031960;28;20030;-76
2021/03/22 06:05:33;;;;;;;63.13;20.35;;;2.30;99.90;;;;;;5033190;28;20021;-75
2021/03/22 06:08:14;;;;;;;60.05;19.88;;;2.40;99.90;;;;;;5039088;28;20025;-76
2021/03/22 06:10:46;;;;;;;56.03;20.23;;;2.40;99.90;;;;;;5041733;28;20025;-75
2021/03/22 06:13:11;;;;;;;63.38;18.63;;;2.40;99.90;;;;;;5043221;28;20053;-75
2021/03/22 06:15:48;;;;;;;61.42;20.45;;;2.40;99.90;;;;;;5045831;28;20048;-75
2021/03/22 06:18:36;;;;;;;53.40;19.67;;;2.40;99.90;;;;;;5043529;28;20064;-75
2021/03/22 06:21:12;;;;;;;60.65;18.30;;;2.50;99.90;;;;;;5024383;28;20021;-75
2021/03/22 06:23:44;;;;;;;50.65;18.58;;;2.50;99.90;;;;;;5043676;28;20123;-75
2021/03/22 06:26:18;;;;;;;44.33;15.95;;;2.60;99.90;;;;;;5045704;28;20086;-75
2021/03/22 06:28:54;;;;;;;44.60;18.02;;;2.60;99.90;;;;;;5039758;28;20040;-75
2021/03/22 06:31:21;;;;;;;49.15;18.05;;;2.60;99.90;;;;;;5031757;28;20024;-75
2021/03/22 06:33:52;;;;;;;52.95;18.55;;;2.50;99.90;;;;;;5024358;28;20041;-76
2021/03/22 06:36:22;;;;;;;51.72;18.48;;;2.50;99.90;;;;;;5045416;28;20021;-75
2021/03/22 06:38:53;;;;;;;64.32;20.65;;;2.50;99.90;;;;;;5012292;28;20032;-75
2021/03/22 06:41:47;;;;;;;65.13;20.48;;;2.40;99.90;;;;;;5037733;28;20031;-75
2021/03/22 06:44:31;;;;;;;76.47;26.58;;;2.50;99.90;;;;;;5044270;28;20025;-75
2021/03/22 06:47:02;;;;;;;54.10;21.15;;;2.50;99.90;;;;;;5040726;28;20112;-76
2021/03/22 06:49:32;;;;;;;96.78;26.48;;;2.50;99.90;;;;;;5042053;28;20021;-75
2021/03/22 06:52:00;;;;;;;66.53;21.42;;;2.50;99.90;;;;;;5040722;28;20091;-75
2021/03/22 06:54:44;;;;;;;48.78;18.73;;;2.50;99.90;;;;;;5017406;28;20065;-75
2021/03/22 06:57:19;;;;;;;49.00;16.88;;;2.60;99.90;;;;;;5035840;28;20072;-76
2021/03/22 07:00:03;;;;;;;55.63;18.02;;;2.70;99.90;;;;;;5030979;28;20044;-75
2021/03/22 07:02:29;;;;;;;63.60;17.83;;;2.70;99.90;;;;;;5036132;28;20385;-75
2021/03/22 07:04:55;;;;;;;51.83;17.13;;;2.70;99.90;;;;;;5024400;28;20056;-75
2021/03/22 07:07:23;;;;;;;52.28;16.67;;;2.80;99.90;;;;;;5040800;28;20025;-74
2021/03/22 07:10:00;;;;;;;52.47;14.88;;;2.80;99.90;;;;;;5043434;28;20029;-75
2021/03/22 07:12:36;;;;;;;38.60;13.73;;;2.80;99.90;;;;;;5026695;28;20432;-74
2021/03/22 07:15:24;;;;;;;49.45;16.85;;;2.70;99.90;;;;;;5045039;28;20083;-74
2021/03/22 07:18:19;;;;;;;48.90;14.00;;;2.80;99.90;;;;;;5048967;28;20024;-75
2021/03/22 07:21:02;;;;;;;55.58;14.32;;;2.80;99.90;;;;;;5039990;28;20025;-75
2021/03/22 07:24:15;;;;;;;52.25;13.25;;;2.70;99.90;;;;;;5035644;28;20026;-75
2021/03/22 07:26:57;;;;;;;51.67;13.35;;;2.80;99.90;;;;;;5043427;28;20025;-75
2021/03/22 07:29:31;;;;;;;50.67;12.90;;;2.70;99.90;;;;;;5021961;28;20091;-75
2021/03/22 07:32:23;;;;;;;42.75;11.60;;;2.70;99.90;;;;;;5044454;28;21189;-75
2021/03/22 07:35:16;;;;;;;51.28;12.90;;;2.70;99.90;;;;;;5025412;28;20120;-75
2021/03/22 07:37:44;;;;;;;;;;;2.70;99.90;;;;;;5043892;28;20025;-74
2021/03/22 07:40:35;;;;;;;54.85;13.07;;;2.70;99.90;;;;;;5020841;28;19908;-74
2021/03/22 07:43:25;;;;;;;61.50;13.73;;;2.50;99.90;;;;;;5027883;28;20029;-75
2021/03/22 07:45:59;;;;;;;53.15;14.43;;;2.60;99.90;;;;;;5032155;28;20393;-74
2021/03/22 07:48:24;;;;;;;68.47;14.70;;;2.70;99.90;;;;;;5023605;28;20064;-75
2021/03/22 07:50:53;;;;;;;43.47;12.52;;;2.80;99.90;;;;;;5049014;28;20118;-74
2021/03/22 07:53:31;;;;;;;48.95;11.98;;;2.90;99.90;;;;;;5022379;28;20061;-74
2021/03/22 07:56:06;;;;;;;59.75;12.52;;;2.70;99.90;;;;;;5042972;28;20481;-74
2021/03/22 07:58:55;;;;;;;92.75;15.45;;;2.60;99.90;;;;;;5023027;28;20130;-75
2021/03/22 08:01:44;;;;;;;50.22;12.32;;;2.50;99.90;;;;;;5035527;28;20025;-75
2021/03/22 08:04:37;;;;;;;65.43;13.63;;;2.40;99.90;;;;;;5044890;28;20830;-75
2021/03/22 08:07:29;;;;;;;60.65;13.65;;;2.50;99.90;;;;;;5044592;28;20389;-75
2021/03/22 08:10:31;;;;;;;61.55;11.80;;;2.50;99.90;;;;;;5040348;28;20017;-75
2021/03/22 08:13:19;;;;;;;66.60;13.32;;;2.80;99.90;;;;;;5027581;28;20033;-75
2021/03/22 08:15:59;;;;;;;52.75;11.57;;;2.80;99.90;;;;;;5022096;28;20021;-75
2021/03/22 08:18:39;;;;;;;51.85;11.27;;;2.90;99.90;;;;;;5034706;28;20101;-75
2021/03/22 08:21:46;;;;;;;38.92;11.40;;;2.90;99.90;;;;;;5043100;28;20028;-75
2021/03/22 08:24:23;;;;;;;50.28;10.57;;;2.90;99.90;;;;;;5032383;28;20061;-75
2021/03/22 08:26:49;;;;;;;48.33;11.32;;;2.90;99.90;;;;;;5042142;28;20064;-75
2021/03/22 08:29:33;;;;;;;38.20;9.55;;;3.00;99.90;;;;;;5041729;28;20033;-75
2021/03/22 08:32:27;;;;;;;61.40;13.25;;;3.00;99.90;;;;;;5041581;28;20021;-74
2021/03/22 08:35:25;;;;;;;36.45;10.35;;;3.00;99.90;;;;;;5032437;28;20025;-73
2021/03/22 08:38:09;;;;;;;53.20;11.43;;;3.20;99.90;;;;;;5033968;28;20105;-74
2021/03/22 08:40:44;;;;;;;52.38;10.77;;;3.20;99.90;;;;;;5005812;28;20025;-74
2021/03/22 08:43:28;;;;;;;51.40;12.80;;;3.00;99.90;;;;;;5045166;28;20033;-73
2021/03/22 08:46:18;;;;;;;46.33;10.43;;;3.20;99.90;;;;;;5042553;28;20022;-73
2021/03/22 08:48:44;;;;;;;41.45;9.95;;;3.10;99.90;;;;;;5043788;28;20036;-74
2021/03/22 08:51:37;;;;;;;41.20;10.80;;;3.20;99.90;;;;;;5042650;28;20030;-74
2021/03/22 08:54:03;;;;;;;57.45;10.63;;;3.30;99.90;;;;;;5043056;28;20034;-75
2021/03/22 08:56:35;;;;;;;46.30;11.02;;;3.20;99.90;;;;;;5041676;28;20025;-73
2021/03/22 08:59:10;;;;;;;50.83;11.55;;;3.20;99.90;;;;;;5043801;28;20017;-74
2021/03/22 09:01:39;;;;;;;46.55;12.82;;;3.40;99.90;;;;;;5027026;28;20520;-74
2021/03/22 09:04:20;;;;;;;46.90;10.82;;;3.50;99.90;;;;;;5042994;28;20109;-73
2021/03/22 09:07:05;;;;;;;43.95;9.90;;;3.40;99.90;;;;;;5004181;28;20029;-75
2021/03/22 09:09:34;;;;;;;48.58;10.98;;;3.50;99.90;;;;;;5031668;28;20016;-74
2021/03/22 09:12:07;;;;;;;38.75;11.32;;;3.60;99.90;;;;;;5044768;28;20056;-75
2021/03/22 09:14:45;;;;;;;42.50;10.52;;;3.40;99.90;;;;;;5008569;28;20029;-74
2021/03/22 09:17:55;;;;;;;50.85;11.45;;;3.50;99.90;;;;;;5041052;28;20033;-75
2021/03/22 09:20:24;;;;;;;44.55;10.18;;;3.60;99.90;;;;;;5043351;28;20021;-79
2021/03/22 09:23:03;;;;;;;45.53;10.90;;;3.70;99.90;;;;;;5048868;28;20025;-76
2021/03/22 09:25:47;;;;;;;47.45;11.13;;;3.80;99.90;;;;;;5024569;28;20025;-75
2021/03/22 09:28:25;;;;;;;44.15;10.43;;;3.80;99.90;;;;;;5025473;28;20429;-75
2021/03/22 09:31:02;;;;;;;51.10;11.27;;;4.10;99.90;;;;;;5024359;28;20075;-75
2021/03/22 09:33:49;;;;;;;54.58;13.50;;;4.70;99.90;;;;;;5022687;28;20033;-74
2021/03/22 09:36:24;;;;;;;40.60;9.98;;;4.70;99.90;;;;;;5016242;28;20405;-74
2021/03/22 09:38:51;;;;;;;43.72;11.13;;;4.50;99.90;;;;;;5025567;28;20408;-74
2021/03/22 09:41:17;;;;;;;46.05;9.35;;;4.40;99.90;;;;;;5034886;28;20030;-75
2021/03/22 09:44:05;;;;;;;41.05;9.80;;;4.50;99.90;;;;;;5041610;28;20018;-76
2021/03/22 09:46:33;;;;;;;43.22;9.25;;;4.60;99.90;;;;;;5022849;28;20072;-75
2021/03/22 09:49:19;;;;;;;33.55;8.70;;;4.60;99.90;;;;;;5042435;28;20460;-76
2021/03/22 09:51:50;;;;;;;43.28;8.52;;;4.80;99.90;;;;;;5042093;28;20139;-75
2021/03/22 09:54:38;;;;;;;40.53;9.50;;;4.80;99.20;;;;;;5024552;28;20031;-75
2021/03/22 09:57:11;;;;;;;41.00;9.77;;;5.20;99.40;;;;;;5041470;28;20029;-75
2021/03/22 09:59:59;;;;;;;36.70;9.57;;;5.40;97.60;;;;;;5024402;28;20489;-75
2021/03/22 10:02:28;;;;;;;39.90;8.68;;;5.50;95.80;;;;;;5027417;28;20024;-76
2021/03/22 10:05:10;;;;;;;30.08;8.38;;;5.70;94.70;;;;;;5040977;28;20029;-75
2021/03/22 10:07:39;;;;;;;34.25;8.13;;;6.20;92.60;;;;;;5023502;28;20596;-75
2021/03/22 10:10:38;;;;;;;40.22;9.77;;;6.00;90.50;;;;;;5041612;28;20032;-75
2021/03/22 10:13:20;;;;;;;48.85;9.65;;;6.00;90.10;;;;;;5037221;28;20017;-75
2021/03/22 10:15:57;;;;;;;27.80;6.45;;;5.30;89.00;;;;;;5045388;28;20106;-75
2021/03/22 10:18:37;;;;;;;36.72;9.15;;;5.20;90.90;;;;;;5041804;28;20359;-76
2021/03/22 10:21:11;;;;;;;33.17;8.60;;;5.10;90.60;;;;;;5044627;28;20103;-75
2021/03/22 10:23:53;;;;;;;39.85;9.40;;;4.90;91.20;;;;;;5037642;28;20032;-75
2021/03/22 10:26:44;;;;;;;28.75;8.05;;;4.80;91.60;;;;;;5023059;28;20033;-75
2021/03/22 10:29:20;;;;;;;32.55;7.68;;;4.70;91.70;;;;;;5019662;28;20026;-75
2021/03/22 10:31:49;;;;;;;42.10;9.32;;;4.80;93.90;;;;;;5036999;28;20029;-75
2021/03/22 10:34:23;;;;;;;37.20;8.23;;;4.70;93.10;;;;;;5023601;28;20101;-75
2021/03/22 10:36:50;;;;;;;40.70;9.95;;;4.70;94.00;;;;;;5041799;28;20027;-75
2021/03/22 10:39:48;;;;;;;32.70;7.50;;;4.70;94.80;;;;;;5041351;28;20115;-75
2021/03/22 10:42:35;;;;;;;46.97;9.70;;;4.80;95.00;;;;;;5019317;28;20060;-75
2021/03/22 10:45:14;;;;;;;43.53;8.20;;;4.70;94.10;;;;;;5045651;28;20503;-75
2021/03/22 10:47:39;;;;;;;41.50;7.65;;;4.60;95.00;;;;;;5039604;28;20071;-75
2021/03/22 10:50:21;;;;;;;42.55;10.55;;;4.40;95.00;;;;;;5038085;28;20024;-76
2021/03/22 10:53:24;;;;;;;45.85;8.80;;;4.30;97.00;;;;;;5040735;28;20013;-75
2021/03/22 10:55:50;;;;;;;33.30;7.43;;;3.90;97.00;;;;;;5042555;28;20095;-75
2021/03/22 10:58:33;;;;;;;36.63;7.53;;;3.80;96.60;;;;;;5046185;28;20064;-76
2021/03/22 11:01:03;;;;;;;29.95;7.72;;;3.80;95.70;;;;;;5040124;28;20037;-75
2021/03/22 11:03:29;;;;;;;34.15;7.63;;;4.00;96.70;;;;;;5036100;28;20032;-75
2021/03/22 11:05:55;;;;;;;29.85;6.70;;;4.10;95.00;;;;;;5038890;28;20021;-76
2021/03/22 11:08:21;;;;;;;27.73;8.05;;;4.10;95.60;;;;;;5042080;28;20022;-75
2021/03/22 11:10:47;;;;;;;27.08;7.93;;;4.00;95.10;;;;;;5045495;28;20033;-75
2021/03/22 11:13:21;;;;;;;30.08;9.35;;;4.20;95.90;;;;;;5031204;28;20021;-75
2021/03/22 11:15:49;;;;;;;43.50;8.07;;;4.20;96.10;;;;;;5041278;28;20025;-75
2021/03/22 11:18:18;;;;;;;27.58;7.40;;;4.50;96.30;;;;;;5045213;28;20527;-75
2021/03/22 11:20:47;;;;;;;33.63;10.82;;;4.70;95.10;;;;;;5040904;28;20049;-76
2021/03/22 11:23:20;;;;;;;29.13;8.50;;;4.80;95.20;;;;;;5024092;28;20063;-76
2021/03/22 11:25:46;;;;;;;34.05;7.95;;;4.80;93.10;;;;;;5018013;28;20079;-76
2021/03/22 11:28:14;;;;;;;54.67;8.68;;;5.10;93.60;;;;;;5018540;28;20696;-78
2021/03/22 11:31:02;;;;;;;48.25;8.82;;;5.50;92.50;;;;;;5045137;28;20140;-73
2021/03/22 11:33:39;;;;;;;114.40;15.10;;;5.80;91.40;;;;;;5044991;28;20029;-74
2021/03/22 11:36:17;;;;;;;37.60;8.85;;;5.70;90.80;;;;;;5039067;28;20021;-74
2021/03/22 11:38:43;;;;;;;43.60;8.93;;;5.30;91.30;;;;;;5041761;28;20552;-74
2021/03/22 11:41:27;;;;;;;45.83;9.52;;;5.00;92.40;;;;;;5044329;28;20030;-74
2021/03/22 11:44:14;;;;;;;35.38;8.70;;;4.80;93.50;;;;;;5035419;28;20462;-73
2021/03/22 11:46:42;;;;;;;37.80;8.65;;;4.70;95.20;;;;;;5041491;28;20477;-76
2021/03/22 11:49:36;;;;;;;36.88;7.30;;;4.60;95.50;;;;;;5023031;28;20112;-76
2021/03/22 11:52:04;;;;;;;25.25;7.07;;;4.30;95.20;;;;;;5038143;28;20025;-76
2021/03/22 11:54:31;;;;;;;36.92;8.32;;;4.30;96.60;;;;;;5039545;28;20025;-76
2021/03/22 11:57:03;;;;;;;29.08;7.05;;;4.30;96.90;;;;;;5037695;28;20029;-76
2021/03/22 11:59:29;;;;;;;;;;;4.40;97.80;;;;;;5042469;28;20033;-75
2021/03/22 12:02:07;;;;;;;25.98;7.43;;;4.40;98.00;;;;;;5020584;28;20372;-73
2021/03/22 12:04:33;;;;;;;32.80;7.95;;;4.20;96.70;;;;;;5040080;28;20025;-73
2021/03/22 12:07:06;;;;;;;32.80;8.00;;;4.20;98.50;;;;;;5024214;28;20026;-76
2021/03/22 12:09:34;;;;;;;32.63;7.82;;;4.30;97.50;;;;;;5044261;28;20040;-76
2021/03/22 12:12:06;;;;;;;42.70;8.27;;;4.30;97.90;;;;;;5035039;28;20106;-76
2021/03/22 12:14:31;;;;;;;34.85;9.85;;;4.50;98.20;;;;;;5029372;28;20096;-76
2021/03/22 12:17:02;;;;;;;29.42;8.15;;;4.40;97.90;;;;;;5052172;28;20131;-76
2021/03/22 12:19:40;;;;;;;28.02;7.50;;;4.40;97.90;;;;;;5042153;28;20025;-76
2021/03/22 12:22:11;;;;;;;34.63;7.93;;;4.30;97.90;;;;;;5037283;28;20033;-76
2021/03/22 12:24:37;;;;;;;32.40;7.28;;;4.30;98.60;;;;;;5036406;28;20033;-76
2021/03/22 12:27:03;;;;;;;26.98;10.25;;;4.30;98.60;;;;;;5052874;28;20033;-76
2021/03/22 12:29:29;;;;;;;19.65;6.60;;;4.30;97.90;;;;;;5054777;28;20029;-76
2021/03/22 12:31:54;;;;;;;28.95;6.88;;;4.20;96.50;;;;;;5053648;28;20487;-76
2021/03/22 12:34:23;;;;;;;28.38;7.30;;;4.40;96.30;;;;;;5036919;28;20066;-76
2021/03/22 12:36:50;;;;;;;24.70;9.05;;;4.40;96.00;;;;;;5019405;28;20111;-76
2021/03/22 12:39:22;;;;;;;22.08;5.38;;;4.20;94.10;;;;;;5054683;28;20143;-76
2021/03/22 12:42:18;;;;;;;18.15;6.45;;;4.00;94.10;;;;;;5035896;28;20388;-76
2021/03/22 12:44:44;;;;;;;34.95;7.35;;;3.90;94.80;;;;;;5037315;28;20362;-76
2021/03/22 12:47:20;;;;;;;22.55;6.43;;;3.90;95.00;;;;;;5017004;28;20147;-76
2021/03/22 12:49:47;;;;;;;19.75;6.93;;;4.10;96.00;;;;;;5016725;28;20033;-76
2021/03/22 12:52:13;;;;;;;23.35;7.68;;;4.20;95.60;;;;;;5034559;28;20500;-76
2021/03/22 12:54:38;;;;;;;24.77;7.18;;;4.20;95.20;;;;;;5052039;28;20025;-76
2021/03/22 12:57:05;;;;;;;36.20;7.57;;;4.10;94.70;;;;;;5054594;28;20075;-76
2021/03/22 12:59:34;;;;;;;32.08;7.90;;;3.90;95.00;;;;;;5035693;28;20029;-76
2021/03/22 13:02:02;;;;;;;28.27;7.85;;;3.70;95.80;;;;;;5054263;28;20055;-76
2021/03/22 13:04:29;;;;;;;21.92;7.75;;;4.00;98.00;;;;;;5047405;28;20029;-76
2021/03/22 13:06:55;;;;;;;35.55;7.78;;;4.10;95.80;;;;;;5034224;28;20037;-78
2021/03/22 13:09:21;;;;;;;22.73;6.43;;;3.90;96.60;;;;;;5017766;28;20052;-76
2021/03/22 13:11:47;;;;;;;28.92;7.70;;;4.10;98.50;;;;;;5035072;28;20025;-76
2021/03/22 13:14:19;;;;;;;33.67;8.10;;;4.40;98.70;;;;;;5015213;28;20025;-76